Time;durP1;ratioP1;P1;durP2;ratioP2;P2;SDS_P1;SDS_P2;PMS_P1;PMS_P2;Temp;Humidity;BMP_temperature;BMP_pressure;BME280_temperature;BME280_humidity;BME280_pressure;Samples;Min_cycle;Max_cycle;Signal;HPM_P1;HPM_P2
2021/10/01 00:00:50;;;;;;;45.92;22.41;;;;;;;;;;389780;136;863230;-59
2021/10/01 00:01:54;;;;;;;48.67;23.75;;;;;;;;;;388437;137;865866;-59
2021/10/01 00:02:56;;;;;;;45.36;22.69;;;;;;;;;;386720;135;857278;-58
2021/10/01 00:03:57;;;;;;;41.92;22.85;;;;;;;;;;387423;136;858761;-59
2021/10/01 00:05:00;;;;;;;41.91;22.62;;;;;;;;;;388980;138;864224;-59
2021/10/01 00:06:02;;;;;;;48.75;23.49;;;;;;;;;;389314;135;866649;-59
2021/10/01 00:07:04;;;;;;;45.55;22.09;;;;;;;;;;386337;136;865499;-59
2021/10/01 00:08:06;;;;;;;41.68;21.91;;;;;;;;;;388819;136;865367;-58
2021/10/01 00:09:07;;;;;;;44.87;22.53;;;;;;;;;;389958;137;864836;-59
2021/10/01 00:10:10;;;;;;;43.11;21.99;;;;;;;;;;388012;136;859624;-59
2021/10/01 00:11:12;;;;;;;43.47;23.29;;;;;;;;;;385737;138;867275;-59
2021/10/01 00:12:13;;;;;;;38.10;23.21;;;;;;;;;;387268;138;857204;-58
2021/10/01 00:13:15;;;;;;;44.76;22.22;;;;;;;;;;387968;137;866526;-59
2021/10/01 00:14:18;;;;;;;48.74;22.54;;;;;;;;;;388479;136;857066;-59
2021/10/01 00:15:19;;;;;;;43.77;22.92;;;;;;;;;;387470;138;868717;-59
2021/10/01 00:16:23;;;;;;;44.49;21.62;;;;;;;;;;382376;138;858570;-58
2021/10/01 00:17:24;;;;;;;38.74;22.04;;;;;;;;;;388121;137;858711;-59
2021/10/01 00:18:27;;;;;;;45.06;22.85;;;;;;;;;;386556;137;866555;-59
2021/10/01 00:19:28;;;;;;;42.09;21.80;;;;;;;;;;388086;138;857590;-59
2021/10/01 00:20:30;;;;;;;45.77;23.67;;;;;;;;;;387358;137;865334;-59
2021/10/01 00:21:34;;;;;;;44.37;23.62;;;;;;;;;;385523;138;859070;-59
2021/10/01 00:22:35;;;;;;;49.33;23.40;;;;;;;;;;385500;138;857537;-59
2021/10/01 00:23:37;;;;;;;40.39;22.24;;;;;;;;;;387538;137;866413;-59
2021/10/01 00:24:39;;;;;;;47.51;22.96;;;;;;;;;;377282;140;864672;-59
2021/10/01 00:25:40;;;;;;;47.98;22.85;;;;;;;;;;385092;138;866654;-58
2021/10/01 00:26:42;;;;;;;41.77;22.19;;;;;;;;;;388759;138;858299;-59
2021/10/01 00:27:44;;;;;;;40.17;22.18;;;;;;;;;;384797;138;857143;-58
2021/10/01 00:28:46;;;;;;;39.92;21.89;;;;;;;;;;384239;138;857231;-59
2021/10/01 00:29:48;;;;;;;40.63;22.12;;;;;;;;;;380837;139;857174;-59
2021/10/01 00:30:50;;;;;;;44.65;23.11;;;;;;;;;;386108;136;864858;-58
2021/10/01 00:31:52;;;;;;;46.50;22.57;;;;;;;;;;383738;136;857168;-58
2021/10/01 00:32:54;;;;;;;40.79;22.78;;;;;;;;;;386329;137;857110;-58
2021/10/01 00:33:55;;;;;;;42.14;22.09;;;;;;;;;;384453;139;863891;-58
2021/10/01 00:34:57;;;;;;;48.73;23.99;;;;;;;;;;386642;137;858756;-59
2021/10/01 00:36:00;;;;;;;40.52;22.27;;;;;;;;;;385733;138;857156;-58
2021/10/01 00:37:02;;;;;;;41.09;21.68;;;;;;;;;;385321;139;866466;-58
2021/10/01 00:38:04;;;;;;;43.66;22.31;;;;;;;;;;385668;138;857258;-58
2021/10/01 00:39:05;;;;;;;40.50;22.37;;;;;;;;;;384189;137;857214;-58
2021/10/01 00:40:09;;;;;;;51.07;22.84;;;;;;;;;;385270;139;859002;-58
2021/10/01 00:41:10;;;;;;;40.28;22.47;;;;;;;;;;383399;139;865908;-58
2021/10/01 00:42:12;;;;;;;39.59;22.79;;;;;;;;;;385835;137;857664;-58
2021/10/01 00:43:14;;;;;;;46.14;23.28;;;;;;;;;;384874;137;866565;-58
2021/10/01 00:44:16;;;;;;;42.81;23.49;;;;;;;;;;384699;138;857554;-59
2021/10/01 00:45:17;;;;;;;44.79;23.99;;;;;;;;;;384171;138;857168;-59
2021/10/01 00:46:20;;;;;;;48.58;22.70;;;;;;;;;;384586;138;866109;-58
2021/10/01 00:47:22;;;;;;;45.59;22.13;;;;;;;;;;385712;137;865402;-58
2021/10/01 00:48:24;;;;;;;41.66;22.45;;;;;;;;;;384241;138;858118;-58
2021/10/01 00:49:25;;;;;;;41.35;22.31;;;;;;;;;;384459;138;857812;-58
2021/10/01 00:50:27;;;;;;;47.44;23.01;;;;;;;;;;384411;138;864701;-58
2021/10/01 00:51:29;;;;;;;38.82;22.65;;;;;;;;;;386082;139;864944;-58
2021/10/01 00:52:30;;;;;;;41.23;23.05;;;;;;;;;;385727;138;857184;-58
2021/10/01 00:53:32;;;;;;;45.66;22.71;;;;;;;;;;385220;138;865960;-58
2021/10/01 00:54:34;;;;;;;45.00;21.63;;;;;;;;;;385438;137;864953;-58
2021/10/01 00:55:36;;;;;;;45.23;22.54;;;;;;;;;;383209;138;858770;-58
2021/10/01 00:56:38;;;;;;;48.65;22.95;;;;;;;;;;384805;137;860571;-58
2021/10/01 00:57:40;;;;;;;47.53;23.09;;;;;;;;;;384243;137;857610;-58
2021/10/01 00:58:41;;;;;;;50.16;24.32;;;;;;;;;;384074;139;865604;-58
2021/10/01 00:59:43;;;;;;;49.40;23.93;;;;;;;;;;385399;139;857203;-59
2021/10/01 01:01:09;;;;;;;49.19;24.43;;;;;;;;;;383225;137;861884;-58
2021/10/01 01:01:58;;;;;;;49.47;23.60;;;;;;;;;;382684;139;859430;-58
2021/10/01 01:03:00;;;;;;;54.15;24.23;;;;;;;;;;385649;137;857308;-58
2021/10/01 01:04:04;;;;;;;56.96;25.20;;;;;;;;;;386212;138;866635;-58
2021/10/01 01:05:07;;;;;;;46.75;23.84;;;;;;;;;;385310;137;864959;-58
2021/10/01 01:06:10;;;;;;;51.28;25.56;;;;;;;;;;385178;138;857666;-58
2021/10/01 01:07:17;;;;;;;53.27;25.45;;;;;;;;;;384725;138;857208;-58
2021/10/01 01:08:20;;;;;;;54.44;25.98;;;;;;;;;;383514;138;858637;-61
2021/10/01 01:09:33;;;;;;;53.71;25.29;;;;;;;;;;383900;138;857225;-60
2021/10/01 01:10:42;;;;;;;60.44;27.19;;;;;;;;;;385263;138;864583;-61
2021/10/01 01:11:45;;;;;;;52.26;26.54;;;;;;;;;;384875;138;859043;-60
2021/10/01 01:25:05;;;;;;;60.86;25.01;;;;;;;2.61;66.72;101481.91;373385;141;879863;-58
2021/10/01 01:26:14;;;;;;;64.32;26.98;;;;;;;2.50;66.63;101483.05;362189;145;858825;-59
2021/10/01 01:27:46;;;;;;;64.81;27.21;;;;;;;2.48;66.75;101479.54;364345;145;860808;-59
2021/10/01 01:29:26;;;;;;;60.25;26.58;;;;;;;2.46;66.78;101484.59;363265;145;859831;-60
2021/10/01 01:30:28;;;;;;;71.40;28.50;;;;;;;2.45;67.01;101489.61;362702;144;858034;-60
2021/10/01 01:31:37;;;;;;;68.85;27.54;;;;;;;2.45;67.01;101489.61;349409;152;857109;-60
2021/10/01 01:32:40;;;;;;;72.88;28.03;;;;;;;2.45;67.04;101485.39;353806;147;857206;-61
2021/10/01 01:33:43;;;;;;;69.65;28.52;;;;;;;2.41;67.04;101486.05;364405;145;858662;-59
2021/10/01 01:34:51;;;;;;;68.00;26.61;;;;;;;2.43;67.37;101481.88;365458;145;857638;-58
2021/10/01 01:35:57;;;;;;;68.87;29.51;;;;;;;2.41;67.33;101490.27;362190;147;859873;-58
2021/10/01 01:37:01;;;;;;;81.20;30.53;;;;;;;2.44;67.42;101490.41;363787;144;858166;-58
2021/10/01 01:38:05;;;;;;;73.73;29.18;;;;;;;2.42;67.27;101485.24;364377;144;857564;-59
2021/10/01 01:39:07;;;;;;;74.82;29.01;;;;;;;2.45;67.33;101484.50;365173;146;859043;-59
2021/10/01 01:40:11;;;;;;;69.17;27.68;;;;;;;2.46;67.27;101481.14;363972;145;859282;-58
2021/10/01 01:41:12;;;;;;;59.61;27.99;;;;;;;2.45;66.93;101485.39;363574;144;857722;-58
2021/10/01 01:42:14;;;;;;;64.37;28.51;;;;;;;2.42;66.93;101482.69;364586;147;860833;-59
2021/10/01 01:43:16;;;;;;;64.88;27.31;;;;;;;2.40;66.99;101479.17;359756;145;857429;-59
2021/10/01 01:44:18;;;;;;;62.10;27.71;;;;;;;2.41;67.11;101485.15;359170;147;864973;-59
2021/10/01 01:45:20;;;;;;;66.27;28.20;;;;;;;2.40;67.01;101481.73;359297;147;865155;-59
2021/10/01 01:46:22;;;;;;;65.66;26.22;;;;;;;2.39;66.95;101473.97;360226;147;864875;-59
2021/10/01 01:47:23;;;;;;;65.39;26.95;;;;;;;2.37;66.92;101489.25;359781;147;857219;-59
2021/10/01 01:48:25;;;;;;;59.12;26.60;;;;;;;;;;358525;147;865098;-59
2021/10/01 01:49:29;;;;;;;62.57;27.56;;;;;;;;;;359322;148;865398;-59
2021/10/01 01:50:31;;;;;;;72.87;28.88;;;;;;;;;;360944;148;857818;-59
2021/10/01 01:51:33;;;;;;;75.85;28.76;;;;;;;;;;360120;147;857655;-59
2021/10/01 01:52:35;;;;;;;71.35;29.69;;;;;;;;;;359724;147;866558;-58
2021/10/01 01:53:37;;;;;;;64.09;27.97;;;;;;;;;;358840;147;865578;-59
2021/10/01 01:54:38;;;;;;;69.52;29.03;;;;;;;;;;360523;147;866631;-59
2021/10/01 01:55:40;;;;;;;71.99;27.79;;;;;;;;;;359256;147;864836;-58
2021/10/01 01:56:42;;;;;;;68.61;26.67;;;;;;;;;;359911;147;857468;-59
2021/10/01 01:57:45;;;;;;;62.74;27.45;;;;;;;;;;358951;148;857148;-58
2021/10/01 01:58:47;;;;;;;66.63;27.94;;;;;;;;;;358065;147;857457;-58
2021/10/01 01:59:49;;;;;;;58.16;26.51;;;;;;;;;;359985;147;858995;-58
2021/10/01 02:00:51;;;;;;;64.19;27.13;;;;;;;;;;359117;147;865081;-58
2021/10/01 02:01:53;;;;;;;68.03;26.77;;;;;;;;;;359406;148;857236;-59
2021/10/01 02:02:54;;;;;;;60.99;26.37;;;;;;;;;;359596;147;867188;-59
2021/10/01 02:03:56;;;;;;;60.20;27.77;;;;;;;;;;359595;147;866370;-58
2021/10/01 02:04:57;;;;;;;62.46;27.59;;;;;;;;;;359578;148;864751;-59
2021/10/01 02:05:59;;;;;;;54.98;25.81;;;;;;;;;;360558;147;857660;-59
2021/10/01 02:07:01;;;;;;;61.19;28.71;;;;;;;;;;360126;147;859974;-59
2021/10/01 02:08:02;;;;;;;63.99;27.44;;;;;;;;;;360051;147;864919;-58
2021/10/01 02:25:05;;;;;;;57.89;26.28;;;;;;;2.08;67.10;101495.41;368114;141;878295;-58
2021/10/01 02:27:38;;;;;;;58.42;26.88;;;;;;;1.95;67.11;101506.66;360002;144;865736;-58
2021/10/01 02:28:44;;;;;;;60.41;26.84;;;;;;;1.93;67.24;101498.03;359612;146;857108;-60
2021/10/01 02:29:57;;;;;;;58.22;28.01;;;;;;;1.91;67.17;101495.42;354018;147;857332;-59
2021/10/01 02:30:59;;;;;;;57.33;28.21;;;;;;;1.88;67.29;101503.78;361173;144;857220;-59
2021/10/01 02:32:08;;;;;;;65.47;28.80;;;;;;;1.82;67.52;101493.24;360539;146;858550;-59
2021/10/01 02:33:15;;;;;;;60.38;27.87;;;;;;;1.82;67.52;101493.24;363733;144;857297;-60
2021/10/01 02:34:20;;;;;;;66.09;28.79;;;;;;;1.84;67.69;101501.86;360371;144;857330;-60
2021/10/01 02:35:22;;;;;;;60.14;26.99;;;;;;;1.83;67.77;101499.25;361005;146;857825;-59
2021/10/01 02:36:24;;;;;;;53.51;27.39;;;;;;;1.83;67.82;101504.36;352404;150;858773;-59
2021/10/01 02:45:41;;;;;;;53.76;24.23;;;;;;;1.81;68.38;101504.25;370617;142;881631;-58
2021/10/01 02:46:44;;;;;;;59.19;25.05;;;;;;;1.73;68.31;101502.97;363117;146;857181;-59
2021/10/01 02:47:45;;;;;;;56.44;26.64;;;;;;;1.74;68.28;101500.52;362340;147;857267;-58
2021/10/01 02:48:47;;;;;;;60.66;27.35;;;;;;;1.77;68.06;101502.34;365041;147;866364;-58
2021/10/01 02:49:49;;;;;;;55.06;25.61;;;;;;;1.77;67.91;101504.89;362706;146;864740;-58
2021/10/01 02:50:52;;;;;;;64.78;28.85;;;;;;;1.77;67.95;101501.48;363927;146;864625;-58
2021/10/01 02:51:55;;;;;;;69.77;29.11;;;;;;;1.76;67.82;101503.13;363759;147;857297;-58
2021/10/01 02:53:17;;;;;;;54.95;27.52;;;;;;;1.77;67.68;101504.03;362226;147;859476;-59
2021/10/01 02:54:28;;;;;;;64.48;27.66;;;;;;;1.76;67.58;101503.13;364330;146;864683;-58
2021/10/01 02:55:37;;;;;;;58.39;28.64;;;;;;;1.75;67.53;101504.83;365477;147;860434;-58
2021/10/01 02:56:42;;;;;;;57.02;28.31;;;;;;;1.75;67.49;101509.94;361378;146;857462;-59
2021/10/01 02:57:48;;;;;;;61.75;28.93;;;;;;;;;;363928;146;857470;-60
2021/10/01 02:59:03;;;;;;;67.92;31.09;;;;;;;;;;361684;147;857732;-58
2021/10/01 03:00:05;;;;;;;65.38;28.64;;;;;;;;;;362344;146;858209;-58
2021/10/01 03:01:07;;;;;;;63.87;29.17;;;;;;;;;;363008;146;857281;-59
2021/10/01 03:02:09;;;;;;;60.73;30.23;;;;;;;;;;363539;147;857268;-60
2021/10/01 03:03:15;;;;;;;64.24;30.80;;;;;;;;;;363598;147;858030;-59
2021/10/01 03:04:17;;;;;;;67.82;29.36;;;;;;;;;;362337;147;865073;-61
2021/10/01 03:05:19;;;;;;;65.59;30.26;;;;;;;;;;362015;147;860227;-60
2021/10/01 03:06:21;;;;;;;61.57;29.52;;;;;;;;;;361583;147;865377;-60
2021/10/01 03:07:23;;;;;;;66.46;31.44;;;;;;;;;;362186;147;858159;-60
2021/10/01 03:08:25;;;;;;;65.14;29.23;;;;;;;;;;361953;147;861954;-60
2021/10/01 03:09:28;;;;;;;62.89;28.84;;;;;;;;;;361753;147;867704;-60
2021/10/01 03:10:31;;;;;;;65.97;29.68;;;;;;;;;;357626;147;860663;-60
2021/10/01 03:11:32;;;;;;;64.09;30.81;;;;;;;;;;362129;147;858729;-61
2021/10/01 03:12:34;;;;;;;66.66;28.81;;;;;;;;;;361328;147;864996;-60
2021/10/01 03:13:35;;;;;;;65.21;30.16;;;;;;;;;;359954;147;857724;-60
2021/10/01 03:14:37;;;;;;;68.17;32.09;;;;;;;;;;362082;147;865096;-62
2021/10/01 03:15:39;;;;;;;57.67;28.87;;;;;;;;;;357266;150;857760;-60
2021/10/01 03:16:41;;;;;;;68.99;30.67;;;;;;;;;;355298;148;864709;-58
2021/10/01 03:17:43;;;;;;;64.46;28.43;;;;;;;;;;360516;147;857284;-60
2021/10/01 03:18:45;;;;;;;67.33;30.75;;;;;;;;;;361370;147;861791;-60
2021/10/01 03:19:47;;;;;;;60.21;30.16;;;;;;;;;;361890;147;857248;-60
2021/10/01 03:20:48;;;;;;;63.01;30.23;;;;;;;;;;355923;150;857810;-60
2021/10/01 03:21:51;;;;;;;60.81;30.13;;;;;;;;;;353914;150;866707;-61
2021/10/01 03:22:53;;;;;;;56.98;29.70;;;;;;;;;;360723;147;859071;-59
2021/10/01 03:23:55;;;;;;;69.14;31.03;;;;;;;;;;362232;147;857214;-60
2021/10/01 03:24:57;;;;;;;64.70;30.36;;;;;;;;;;363175;147;857216;-64
2021/10/01 03:25:58;;;;;;;62.55;30.95;;;;;;;;;;361636;147;857263;-59
2021/10/01 03:27:00;;;;;;;61.41;30.45;;;;;;;;;;359695;147;857217;-59
2021/10/01 03:28:02;;;;;;;64.92;30.14;;;;;;;;;;364366;147;857076;-58
2021/10/01 03:29:03;;;;;;;59.29;30.49;;;;;;;;;;360521;147;867015;-59
2021/10/01 03:30:06;;;;;;;59.42;29.65;;;;;;;;;;361982;147;864799;-62
2021/10/01 03:31:08;;;;;;;62.44;29.48;;;;;;;;;;359775;147;857290;-59
2021/10/01 03:32:10;;;;;;;67.30;31.21;;;;;;;;;;364039;147;865109;-60
2021/10/01 03:45:09;;;;;;;53.72;26.45;;;;;;;1.78;67.69;101511.76;369966;141;868064;-57
2021/10/01 03:46:11;;;;;;;52.73;25.81;;;;;;;1.66;67.71;101513.66;363538;147;857846;-58
2021/10/01 03:47:12;;;;;;;53.28;27.26;;;;;;;1.66;67.78;101509.45;361669;147;857382;-57
2021/10/01 03:48:14;;;;;;;62.06;28.91;;;;;;;1.65;68.00;101517.91;362763;147;864810;-60
2021/10/01 03:49:16;;;;;;;53.48;27.04;;;;;;;1.66;68.08;101517.11;364639;147;864905;-60
2021/10/01 03:50:18;;;;;;;54.21;27.79;;;;;;;1.68;68.10;101515.52;361284;147;864921;-59
2021/10/01 03:51:23;;;;;;;55.22;28.31;;;;;;;1.70;68.26;101516.47;362120;146;860715;-60
2021/10/01 03:52:24;;;;;;;56.73;27.51;;;;;;;1.73;68.16;101518.30;364026;146;865584;-59
2021/10/01 03:53:25;;;;;;;52.40;27.60;;;;;;;1.77;68.25;101517.66;364477;147;864821;-59
2021/10/01 03:54:27;;;;;;;52.46;27.35;;;;;;;1.79;67.88;101521.17;363158;146;857354;-59
2021/10/01 03:55:29;;;;;;;51.94;28.11;;;;;;;1.81;67.77;101519.58;362116;146;857307;-63
2021/10/01 04:05:06;;;;;;;55.19;25.80;;;;;;;2.01;67.79;101524.86;370000;142;878241;-58
2021/10/01 04:06:08;;;;;;;49.97;25.76;;;;;;;1.94;67.76;101522.78;363482;146;856302;-58
2021/10/01 04:07:10;;;;;;;57.34;26.37;;;;;;;1.94;67.71;101530.45;361975;146;865053;-58
2021/10/01 04:08:12;;;;;;;50.82;27.41;;;;;;;1.96;67.57;101531.41;362001;147;864839;-59
2021/10/01 04:09:14;;;;;;;58.26;26.90;;;;;;;1.98;67.42;101529.81;354635;150;865176;-58
2021/10/01 04:10:17;;;;;;;57.82;26.88;;;;;;;1.98;67.13;101524.70;362676;146;859182;-60
2021/10/01 04:11:21;;;;;;;50.16;26.57;;;;;;;1.96;67.00;101534.86;363480;147;860228;-59
2021/10/01 04:12:23;;;;;;;51.54;26.72;;;;;;;1.96;66.71;101531.41;351868;150;859310;-59
2021/10/01 04:13:26;;;;;;;58.47;28.21;;;;;;;1.95;66.65;101534.76;362607;146;859041;-59
2021/10/01 04:14:28;;;;;;;61.14;29.67;;;;;;;1.90;66.62;101531.98;357460;148;866186;-59
2021/10/01 04:15:30;;;;;;;64.61;29.59;;;;;;;1.90;66.62;101531.98;358017;149;858098;-60
2021/10/01 04:16:33;;;;;;;62.79;29.61;;;;;;;1.79;66.51;101533.94;361169;147;857271;-59
2021/10/01 04:17:35;;;;;;;59.90;29.10;;;;;;;1.71;66.60;101520.78;362152;146;857341;-60
2021/10/01 04:18:37;;;;;;;62.89;29.04;;;;;;;1.66;66.76;101528.98;362893;147;859662;-59
2021/10/01 04:19:39;;;;;;;53.36;29.82;;;;;;;1.63;67.04;101531.36;362437;147;865158;-59
2021/10/01 04:21:01;;;;;;;55.90;30.02;;;;;;;1.62;67.11;101529.61;362600;146;866098;-60
2021/10/01 04:22:03;;;;;;;58.93;29.70;;;;;;;1.59;67.06;101535.41;342459;153;864915;-59
2021/10/01 04:23:05;;;;;;;61.03;30.51;;;;;;;1.57;67.16;101531.89;341969;153;857257;-59
2021/10/01 04:24:07;;;;;;;64.64;30.43;;;;;;;1.57;67.16;101531.89;342075;153;860869;-59
2021/10/01 04:25:09;;;;;;;66.26;30.74;;;;;;;1.54;67.38;101539.39;342002;153;866406;-56
2021/10/01 04:26:11;;;;;;;65.31;29.71;;;;;;;1.54;67.66;101532.63;337768;155;864125;-57
2021/10/01 04:27:13;;;;;;;68.94;31.82;;;;;;;1.55;67.73;101525.83;338384;154;857250;-57
2021/10/01 04:28:14;;;;;;;71.28;29.86;;;;;;;1.57;68.00;101532.79;338526;155;857299;-58
2021/10/01 04:29:16;;;;;;;58.56;31.13;;;;;;;1.62;67.97;101530.50;339197;155;864908;-58
2021/10/01 04:30:19;;;;;;;64.02;31.13;;;;;;;1.64;67.98;101535.67;338598;154;858898;-56
2021/10/01 04:31:21;;;;;;;66.69;31.89;;;;;;;1.65;67.89;101530.67;334916;156;864964;-56
2021/10/01 04:32:23;;;;;;;60.56;31.91;;;;;;;1.67;67.92;101538.39;342315;153;865089;-58
2021/10/01 04:33:25;;;;;;;68.13;31.05;;;;;;;1.67;68.10;101538.39;341529;153;857498;-56
2021/10/01 04:34:32;;;;;;;59.24;30.41;;;;;;;1.73;68.21;101538.73;337037;156;859864;-57
2021/10/01 04:35:31;;;;;;;65.37;32.44;;;;;;;1.75;68.27;101535.47;336785;156;859067;-57
2021/10/01 04:36:35;;;;;;;59.69;31.87;;;;;;;1.78;68.16;101533.88;336585;156;863981;-56
2021/10/01 04:37:36;;;;;;;64.13;31.40;;;;;;;1.81;68.13;101537.45;341156;154;865874;-56
2021/10/01 04:38:39;;;;;;;57.91;29.97;;;;;;;1.84;68.22;101535.06;342389;153;857365;-56
2021/10/01 04:39:41;;;;;;;62.78;32.51;;;;;;;1.90;68.20;101539.64;341580;153;857369;-56
2021/10/01 04:40:43;;;;;;;63.25;31.97;;;;;;;1.93;68.14;101541.46;336601;156;864970;-59
2021/10/01 04:41:45;;;;;;;64.37;32.30;;;;;;;1.98;68.15;101540.03;337830;155;858794;-56
2021/10/01 04:42:47;;;;;;;62.23;31.19;;;;;;;2.02;68.08;101544.50;335838;157;859199;-58
2021/10/01 04:43:49;;;;;;;68.46;31.69;;;;;;;2.06;68.00;101546.42;335679;156;857258;-56
2021/10/01 04:44:50;;;;;;;61.52;30.74;;;;;;;2.09;68.04;101540.61;336684;157;865073;-57
2021/10/01 05:07:57;;;;;;;57.49;30.48;;;;;;;3.06;68.42;101555.72;373616;141;879437;-57
2021/10/01 05:08:58;;;;;;;59.43;32.04;;;;;;;3.03;68.33;101560.69;366984;144;858111;-56
2021/10/01 05:10:00;;;;;;;64.16;31.79;;;;;;;3.09;68.22;101561.79;367377;144;856291;-57
2021/10/01 05:11:02;;;;;;;58.53;31.27;;;;;;;3.12;68.20;101560.27;366803;144;863859;-59
2021/10/01 05:12:04;;;;;;;58.79;31.78;;;;;;;3.16;68.21;101563.84;366729;144;857286;-58
2021/10/01 05:13:06;;;;;;;55.98;28.84;;;;;;;3.20;68.29;101565.78;366632;144;865445;-58
2021/10/01 05:14:08;;;;;;;56.42;29.33;;;;;;;3.27;68.21;101567.83;366430;144;858624;-58
2021/10/01 05:15:10;;;;;;;58.59;31.01;;;;;;;3.32;68.13;101561.25;366339;144;865435;-58
2021/10/01 05:16:13;;;;;;;57.16;29.69;;;;;;;3.35;68.26;101558.83;367269;144;865760;-59
2021/10/01 05:17:14;;;;;;;53.41;29.21;;;;;;;3.41;68.32;101565.91;367738;144;857745;-57
2021/10/01 05:18:17;;;;;;;52.09;29.51;;;;;;;3.46;68.35;101561.88;366277;144;866767;-59
2021/10/01 05:19:19;;;;;;;53.97;29.27;;;;;;;3.54;68.34;101564.82;367297;144;864679;-59
2021/10/01 05:20:22;;;;;;;56.13;30.26;;;;;;;3.62;68.34;101562.59;367216;144;857257;-60
2021/10/01 05:21:23;;;;;;;60.58;31.15;;;;;;;3.68;68.34;101574.83;366807;144;864732;-59
2021/10/01 05:22:25;;;;;;;60.55;31.37;;;;;;;3.70;68.47;101568.95;366536;144;864981;-59
2021/10/01 05:23:27;;;;;;;57.41;31.06;;;;;;;;;;366624;144;857239;-60
2021/10/01 05:24:28;;;;;;;63.30;32.46;;;;;;;;;;366969;144;864845;-58
2021/10/01 05:25:30;;;;;;;56.51;31.84;;;;;;;;;;366496;144;857434;-62
2021/10/01 05:26:33;;;;;;;58.54;32.12;;;;;;;;;;367276;144;863451;-61
2021/10/01 05:27:35;;;;;;;63.01;33.59;;;;;;;;;;367538;144;858807;-60
2021/10/01 05:28:36;;;;;;;62.20;33.10;;;;;;;;;;366660;144;865957;-60
2021/10/01 05:29:38;;;;;;;56.39;30.30;;;;;;;;;;366614;144;857246;-60
2021/10/01 05:30:41;;;;;;;53.99;30.16;;;;;;;;;;367075;144;864849;-60
2021/10/01 05:31:43;;;;;;;65.04;32.50;;;;;;;;;;367371;144;857197;-63
2021/10/01 05:32:44;;;;;;;54.79;30.26;;;;;;;;;;367004;144;866816;-61
2021/10/01 05:33:46;;;;;;;50.57;29.65;;;;;;;;;;365884;144;866538;-63
2021/10/01 05:34:48;;;;;;;54.29;29.61;;;;;;;;;;366589;144;859004;-60
2021/10/01 05:35:49;;;;;;;53.76;28.84;;;;;;;;;;366351;144;858503;-60
2021/10/01 05:36:51;;;;;;;54.07;28.89;;;;;;;;;;366238;144;856763;-59
2021/10/01 05:37:52;;;;;;;54.51;29.65;;;;;;;;;;366864;144;864948;-61
2021/10/01 05:38:54;;;;;;;53.13;29.28;;;;;;;;;;366656;144;864860;-60
2021/10/01 05:39:55;;;;;;;53.60;27.96;;;;;;;;;;366910;144;860046;-59
2021/10/01 05:40:57;;;;;;;52.17;28.38;;;;;;;;;;367300;144;857182;-59
2021/10/01 05:41:59;;;;;;;50.99;28.41;;;;;;;;;;366997;144;865999;-60
2021/10/01 05:43:00;;;;;;;60.48;27.96;;;;;;;;;;366716;144;863915;-59
2021/10/01 05:44:02;;;;;;;50.16;27.96;;;;;;;;;;366761;144;864955;-58
2021/10/01 05:45:06;;;;;;;56.14;28.84;;;;;;;;;;366167;144;857811;-61
2021/10/01 05:46:08;;;;;;;55.35;29.16;;;;;;;;;;366929;144;864848;-60
2021/10/01 05:47:10;;;;;;;52.20;28.35;;;;;;;;;;367206;144;858444;-58
2021/10/01 05:48:12;;;;;;;64.74;29.71;;;;;;;;;;365992;144;857991;-59
2021/10/01 05:49:20;;;;;;;60.45;31.31;;;;;;;;;;366481;144;859443;-60
2021/10/01 05:50:20;;;;;;;47.81;29.48;;;;;;;;;;366814;144;857134;-58
2021/10/01 05:51:21;;;;;;;55.04;31.48;;;;;;;;;;366930;144;865023;-59
2021/10/01 05:52:27;;;;;;;54.39;29.49;;;;;;;;;;366869;144;859199;-60
2021/10/01 05:54:38;;;;;;;53.35;27.12;;;;;;;;;;367091;144;865227;-61
2021/10/01 05:55:42;;;;;;;49.12;26.79;;;;;;;;;;367019;144;858044;-58
2021/10/01 05:56:45;;;;;;;53.24;27.66;;;;;;;;;;366392;144;857602;-59
2021/10/01 05:57:46;;;;;;;47.12;27.39;;;;;;;;;;366812;144;857632;-60
2021/10/01 05:58:48;;;;;;;53.22;29.03;;;;;;;;;;366715;144;865120;-60
2021/10/01 05:59:50;;;;;;;51.05;29.17;;;;;;;;;;366723;144;866546;-60
2021/10/01 06:00:52;;;;;;;50.27;28.47;;;;;;;;;;366842;144;857167;-60
2021/10/01 06:01:54;;;;;;;52.53;29.29;;;;;;;;;;366774;144;857742;-59
2021/10/01 06:02:56;;;;;;;49.01;27.33;;;;;;;;;;366474;144;857205;-60
2021/10/01 06:03:58;;;;;;;55.17;27.71;;;;;;;;;;367170;144;857064;-58
2021/10/01 06:05:00;;;;;;;49.82;26.96;;;;;;;;;;363372;145;856938;-59
2021/10/01 06:06:01;;;;;;;51.91;28.17;;;;;;;;;;362850;145;858205;-58
2021/10/01 06:07:03;;;;;;;46.51;26.44;;;;;;;;;;367008;144;860461;-60
2021/10/01 06:08:05;;;;;;;54.80;27.49;;;;;;;;;;366156;144;865223;-60
2021/10/01 06:09:11;;;;;;;51.06;28.72;;;;;;;;;;366440;144;864755;-59
2021/10/01 06:10:14;;;;;;;47.43;26.86;;;;;;;;;;366699;144;857421;-58
2021/10/01 06:11:17;;;;;;;50.64;27.23;;;;;;;;;;366189;144;860229;-59
2021/10/01 06:12:19;;;;;;;49.67;27.11;;;;;;;;;;366860;144;864969;-58
2021/10/01 06:13:20;;;;;;;45.99;26.52;;;;;;;;;;366733;144;857381;-59
2021/10/01 06:14:23;;;;;;;45.78;27.15;;;;;;;;;;366980;144;866408;-57
2021/10/01 06:15:25;;;;;;;50.75;27.76;;;;;;;;;;366746;144;859733;-59
2021/10/01 06:16:27;;;;;;;53.03;28.20;;;;;;;;;;366385;144;858771;-59
2021/10/01 06:17:28;;;;;;;48.52;26.90;;;;;;;;;;366905;144;857625;-59
2021/10/01 06:18:30;;;;;;;51.97;28.94;;;;;;;;;;366451;144;864983;-59
2021/10/01 06:19:36;;;;;;;45.69;26.81;;;;;;;;;;367415;144;857266;-60
2021/10/01 06:20:39;;;;;;;44.58;25.48;;;;;;;;;;366816;144;857737;-59
2021/10/01 06:21:40;;;;;;;46.81;27.36;;;;;;;;;;367654;144;858550;-61
2021/10/01 06:22:42;;;;;;;53.54;27.01;;;;;;;;;;366710;144;857237;-58
2021/10/01 06:23:43;;;;;;;48.23;26.74;;;;;;;;;;366420;145;865051;-58
2021/10/01 06:24:45;;;;;;;47.47;27.04;;;;;;;;;;365437;144;864812;-57
2021/10/01 06:25:47;;;;;;;44.20;26.26;;;;;;;;;;366659;144;864984;-59
2021/10/01 06:26:48;;;;;;;41.60;25.63;;;;;;;;;;366638;144;864826;-59
2021/10/01 06:27:50;;;;;;;42.76;25.44;;;;;;;;;;366839;144;857148;-58
2021/10/01 06:28:52;;;;;;;44.97;26.95;;;;;;;;;;367019;144;858399;-59
2021/10/01 06:45:08;;;;;;;43.07;22.67;;;;;;;9.54;67.01;101593.34;370871;142;881419;-60
2021/10/01 06:46:25;;;;;;;37.89;20.98;;;;;;;9.50;67.21;101595.01;363168;145;858389;-59
2021/10/01 06:47:31;;;;;;;35.79;21.16;;;;;;;9.57;66.58;101593.45;362939;146;858583;-60
2021/10/01 06:50:07;;;;;;;42.67;23.36;;;;;;;9.75;66.21;101586.09;363141;145;859423;-60
2021/10/01 06:52:47;;;;;;;29.66;15.09;;;;;;;9.96;65.67;101592.57;362340;145;859600;-61
2021/10/01 07:23:53;;;;;;;;;;;;;;;;;;361105;147;858264;-60
2021/10/01 07:39:01;;;;;;;12.58;7.12;;;;;;;;;;357766;147;857010;-61
2021/10/01 08:25:03;;;;;;;9.43;4.43;;;;;;;14.68;41.00;101573.68;370837;142;879527;-64
2021/10/01 08:26:05;;;;;;;4.53;3.58;;;;;;;14.64;39.86;101570.19;363249;146;858576;-64
2021/10/01 08:27:06;;;;;;;6.74;3.76;;;;;;;14.65;39.69;101578.89;363032;146;858247;-64
2021/10/01 08:28:08;;;;;;;9.28;4.87;;;;;;;14.63;39.50;101578.02;361565;146;866178;-64
2021/10/01 08:29:10;;;;;;;7.37;4.01;;;;;;;14.62;41.09;101579.74;362511;146;857449;-63
2021/10/01 08:30:13;;;;;;;6.26;4.29;;;;;;;14.65;40.78;101576.28;363761;147;864961;-64
2021/10/01 08:31:15;;;;;;;6.69;4.47;;;;;;;14.69;39.61;101578.87;365337;146;857796;-64
2021/10/01 08:32:17;;;;;;;12.53;4.54;;;;;;;14.74;38.83;101574.57;365148;146;857236;-64
2021/10/01 08:33:18;;;;;;;7.70;3.81;;;;;;;;;;361694;147;858818;-63
2021/10/01 08:34:20;;;;;;;6.27;3.84;;;;;;;;;;362693;146;857172;-64
2021/10/01 08:35:24;;;;;;;6.44;4.51;;;;;;;;;;363296;146;863630;-64
2021/10/01 08:36:26;;;;;;;5.79;4.03;;;;;;;;;;361032;147;859415;-63
2021/10/01 08:37:27;;;;;;;8.79;3.74;;;;;;;;;;364407;145;858732;-63